Startpagina
METAR-TAF:

METAR-TAF

Vliegvelden :

Mullan Pass Vor, Idaho, Verenigde Staten

breedte: 47-27-15N, lengte: 115-40-11W, hoogte: 1829 m

Actueel weer

Dit bericht is 22 minuten geleden gemaakt, om 23:53 UTC
Wind 4 kt uit het noordnoordwesten
Temperatuur -13°C
Vochtigheid 78%
Druk 1015 hPa
Zicht: 2.4 km
Verspreide wolken op 300 ft
Verspreide wolken op 1200 ft
Geheel bewolkt op 1800 ft
lichte sneeuw

METAR: KMLP 182353Z AUTO 34004KT 1 1/2SM -SN SCT003 SCT012 OVC018 M13/M16 A2996 RMK AO2 SLP253 P0000 60000 T11331161 11117 21156 56003 $

Tijdstip: 16:15 (00:15 UTC)


TAF: ontbreekt

Waarnemingen en weersverwachtingen van meer dan 4000 vliegvelden (METAR en TAF).

De beschikbare stations zijn de gele en rode punten op de kaart.

Ga met uw muis naar het station om de naam te zien.

Klik dan om waarnemingen en weersverwachtingen te zien.

kaart wijzigen: klik op de groene knoppen met een zwart kruis om in te zoomen, op de groene knop met een streepje om uit te zoomen of op de groene pijlen voor aangrenzende kaarten.


METAR-TAF: